Time;durP1;ratioP1;P1;durP2;ratioP2;P2;SDS_P1;SDS_P2;PMS_P1;PMS_P2;Temp;Humidity;BMP_temperature;BMP_pressure;BME280_temperature;BME280_humidity;BME280_pressure;Samples;Min_cycle;Max_cycle;Signal;HPM_P1;HPM_P2
2022/09/08 00:01:35;;;;;;;1.80;1.30;;;;;;;17.90;72.30;100831.13;5076040;28;20051;-86
2022/09/08 00:04:05;;;;;;;1.10;1.10;;;;;;;17.91;72.04;100831.03;5074892;28;20028;-86
2022/09/08 00:06:33;;;;;;;1.98;1.45;;;;;;;17.93;72.21;100830.97;5075639;28;20069;-86
2022/09/08 00:08:59;;;;;;;1.10;1.00;;;;;;;17.93;72.38;100828.34;5075372;28;20396;-86
2022/09/08 00:11:30;;;;;;;1.23;1.00;;;;;;;17.93;72.76;100844.09;5075045;28;20046;-86
2022/09/08 00:13:58;;;;;;;0.98;0.98;;;;;;;17.91;74.26;100845.94;5075474;28;20037;-86
2022/09/08 00:16:23;;;;;;;1.50;1.33;;;;;;;17.88;74.69;100848.72;5075184;28;20119;-86
2022/09/08 00:18:50;;;;;;;0.98;0.98;;;;;;;17.86;75.69;100850.56;5075622;28;20173;-86
2022/09/08 00:21:26;;;;;;;1.27;1.15;;;;;;;17.83;78.65;100862.06;5074442;28;20047;-88
2022/09/08 00:23:51;;;;;;;2.28;1.23;;;;;;;17.78;76.39;100856.16;5075162;28;20042;-89
2022/09/08 00:26:20;;;;;;;3.10;1.90;;;;;;;17.73;75.21;100852.91;5076188;28;20526;-90
2022/09/08 00:28:49;;;;;;;1.75;1.40;;;;;;;17.67;76.12;100837.41;5076921;28;20024;-92
2022/09/08 00:31:15;;;;;;;1.25;1.15;;;;;;;17.64;74.79;100843.66;5076033;28;20590;-91
2022/09/08 00:33:42;;;;;;;1.00;1.00;;;;;;;17.63;75.47;100841.06;5076100;28;20021;-92
2022/09/08 00:36:19;;;;;;;1.23;1.13;;;;;;;17.58;77.36;100822.91;5076358;28;20040;-92
2022/09/08 00:38:53;;;;;;;1.85;1.30;;;;;;;17.51;76.16;100830.22;5074960;28;20039;-92
2022/09/08 00:41:20;;;;;;;1.30;1.20;;;;;;;17.45;76.95;100825.25;5086445;28;20416;-92
2022/09/08 00:44:25;;;;;;;1.02;0.95;;;;;;;17.41;75.45;100828.91;5076212;28;20024;-91
2022/09/08 00:46:53;;;;;;;1.08;0.80;;;;;;;17.36;76.72;100816.00;5076368;28;20035;-93
2022/09/08 00:49:19;;;;;;;1.00;1.00;;;;;;;17.35;76.98;100808.22;5075663;28;20055;-95
2022/09/08 00:51:49;;;;;;;;;;;;;;;17.33;76.09;100799.56;5076704;28;20033;-93
2022/09/08 00:54:17;;;;;;;0.90;0.77;;;;;;;17.32;75.96;100801.34;5075815;28;19965;-93
2022/09/08 00:56:44;;;;;;;1.20;1.10;;;;;;;17.33;76.01;100804.81;5076569;28;20021;-94
2022/09/08 00:59:11;;;;;;;1.30;0.90;;;;;;;17.34;76.23;100811.75;5075789;28;20033;-94
2022/09/08 01:01:36;;;;;;;0.80;0.80;;;;;;;17.32;75.56;100800.47;5076275;28;20431;-93
2022/09/08 01:04:03;;;;;;;1.27;1.00;;;;;;;17.26;75.90;100789.34;5075941;28;20024;-92
2022/09/08 01:13:15;;;;;;;2.13;1.08;;;;;;;17.23;81.18;100780.75;5075977;28;20038;-95
2022/09/08 01:15:40;;;;;;;2.33;1.70;;;;;;;17.14;80.25;100780.25;5075563;28;20021;-95
2022/09/08 01:18:06;;;;;;;1.40;1.30;;;;;;;17.10;78.50;100777.81;5075598;28;20024;-94
2022/09/08 01:20:47;;;;;;;1.23;1.13;;;;;;;17.10;77.91;100789.19;5076075;28;20035;-94
2022/09/08 01:23:41;;;;;;;1.38;1.20;;;;;;;17.13;77.72;100782.94;5075799;28;20399;-94
2022/09/08 01:26:17;;;;;;;1.15;0.90;;;;;;;17.12;77.70;100768.97;5064448;28;20044;-94
2022/09/08 01:28:49;;;;;;;1.17;1.17;;;;;;;17.13;78.12;100761.97;5075743;28;20047;-93
2022/09/08 01:31:16;;;;;;;0.93;0.70;;;;;;;17.13;77.59;100756.72;5075910;28;20019;-95
2022/09/08 01:33:41;;;;;;;0.77;0.75;;;;;;;17.14;77.70;100755.81;5075148;28;20028;-93
2022/09/08 01:36:10;;;;;;;1.50;0.90;;;;;;;17.16;78.07;100750.47;5075560;28;20020;-93
2022/09/08 01:38:36;;;;;;;0.70;0.70;;;;;;;17.18;78.36;100754.72;5075590;28;20389;-92
2022/09/08 01:41:01;;;;;;;0.87;0.80;;;;;;;17.17;78.24;100749.56;5075430;28;20020;-93
2022/09/08 01:43:26;;;;;;;0.70;0.70;;;;;;;17.18;78.19;100759.13;5075793;28;20024;-94
2022/09/08 01:45:55;;;;;;;0.93;0.80;;;;;;;17.18;78.57;100764.38;5075181;28;20040;-94
2022/09/08 01:48:21;;;;;;;1.02;0.93;;;;;;;17.19;81.00;100763.47;5075011;28;20052;-94
2022/09/08 01:50:59;;;;;;;0.77;0.60;;;;;;;17.12;78.89;100753.22;5074395;28;20021;-91
2022/09/08 01:53:24;;;;;;;0.70;0.70;;;;;;;17.09;80.21;100735.03;5054828;28;20021;-91
2022/09/08 01:55:59;;;;;;;1.13;1.03;;;;;;;17.10;79.07;100735.88;5055414;28;20373;-91
2022/09/08 01:58:25;;;;;;;0.98;0.95;;;;;;;17.08;82.79;100724.59;5062010;28;20028;-92
2022/09/08 02:00:51;;;;;;;1.03;0.80;;;;;;;17.05;79.93;100728.22;5054880;28;20021;-93
2022/09/08 02:03:19;;;;;;;0.90;0.90;;;;;;;17.03;79.51;100730.03;5055031;28;20021;-94
2022/09/08 02:05:45;;;;;;;0.90;0.90;;;;;;;17.05;79.57;100722.97;5055112;28;20067;-94
2022/09/08 02:08:26;;;;;;;0.83;0.83;;;;;;;17.06;78.85;100715.94;5054624;28;20535;-95
2022/09/08 02:10:56;;;;;;;0.82;0.68;;;;;;;17.05;79.68;100712.47;5059874;28;20028;-94
2022/09/08 02:13:22;;;;;;;0.90;0.90;;;;;;;17.03;81.13;100710.84;5075217;28;20036;-94
2022/09/08 02:16:01;;;;;;;0.77;0.77;;;;;;;16.97;79.76;100696.25;5074762;28;20035;-95
2022/09/08 02:18:31;;;;;;;1.00;0.93;;;;;;;16.97;80.45;100698.88;5074969;28;20021;-95
2022/09/08 02:21:04;;;;;;;1.60;0.93;;;;;;;16.94;79.94;100701.63;5074912;28;20051;-95
2022/09/08 02:23:30;;;;;;;0.90;0.90;;;;;;;16.94;79.31;100696.38;5073886;28;20020;-95
2022/09/08 02:26:05;;;;;;;0.70;0.70;;;;;;;16.93;79.62;100686.78;5074207;28;20024;-95
2022/09/08 02:28:30;;;;;;;0.80;0.80;;;;;;;16.92;79.62;100683.31;5074454;28;20016;-95
2022/09/08 02:30:57;;;;;;;0.87;0.80;;;;;;;16.93;79.62;100676.28;5074475;28;20025;-95
2022/09/08 02:33:22;;;;;;;1.20;0.75;;;;;;;16.94;79.47;100684.09;5074532;28;20077;-95
2022/09/08 02:35:48;;;;;;;1.27;0.90;;;;;;;16.95;79.31;100685.81;5074855;28;20445;-95
2022/09/08 02:38:16;;;;;;;1.20;0.83;;;;;;;16.97;79.66;100688.38;5073915;28;20025;-96
2022/09/08 02:40:42;;;;;;;0.93;0.93;;;;;;;16.97;79.65;100694.47;5074397;28;20028;-96
2022/09/08 02:43:20;;;;;;;0.80;0.80;;;;;;;16.95;79.64;100695.47;5074039;28;20031;-95
2022/09/08 02:45:46;;;;;;;0.80;0.80;;;;;;;16.95;79.54;100692.84;5074378;28;20024;-95
2022/09/08 02:48:12;;;;;;;0.60;0.60;;;;;;;16.96;79.66;100698.00;5074110;28;20049;-95
2022/09/08 02:50:40;;;;;;;1.97;0.97;;;;;;;16.95;79.60;100698.91;5074429;28;20456;-95
2022/09/08 02:53:09;;;;;;;0.95;0.70;;;;;;;16.92;79.90;100695.56;5074106;28;20350;-96
2022/09/08 02:55:41;;;;;;;0.65;0.65;;;;;;;16.89;79.85;100699.16;5074342;28;20085;-96
2022/09/08 02:58:08;;;;;;;0.85;0.85;;;;;;;16.89;80.62;100695.72;5053453;28;20480;-93
2022/09/08 03:00:36;;;;;;;0.90;0.90;;;;;;;16.86;80.46;100694.06;5054224;28;20032;-91
2022/09/08 03:03:01;;;;;;;0.63;0.60;;;;;;;16.86;80.03;100688.81;5072597;28;20103;-92
2022/09/08 03:05:33;;;;;;;0.87;0.87;;;;;;;16.85;80.12;100692.34;5073988;28;20067;-93
2022/09/08 03:07:59;;;;;;;0.73;0.73;;;;;;;16.85;80.27;100702.84;5074261;28;20038;-92
2022/09/08 03:10:24;;;;;;;0.50;0.50;;;;;;;16.84;81.35;100706.38;5074239;28;20024;-92
2022/09/08 03:13:06;;;;;;;0.90;0.90;;;;;;;16.81;80.35;100701.28;5073089;28;20032;-92
2022/09/08 03:15:32;;;;;;;1.88;0.80;;;;;;;16.80;80.21;100699.59;5073744;28;20016;-93
2022/09/08 03:17:58;;;;;;;0.90;0.85;;;;;;;16.81;80.13;100706.53;5073240;28;20079;-93
2022/09/08 03:20:25;;;;;;;1.08;0.98;;;;;;;16.81;80.59;100706.53;5073670;28;20111;-93
2022/09/08 03:23:14;;;;;;;1.08;0.98;;;;;;;16.79;80.29;100701.34;5073915;28;20024;-93
2022/09/08 03:25:39;;;;;;;1.67;1.15;;;;;;;16.77;80.90;100703.19;5074155;28;20055;-92
2022/09/08 03:31:13;;;;;;;0.95;0.80;;;;;;;16.73;80.52;100696.38;5073600;28;20118;-92
2022/09/08 03:33:39;;;;;;;1.10;0.70;;;;;;;16.73;80.59;100691.13;5083435;28;20035;-92
2022/09/08 03:36:22;;;;;;;0.65;0.65;;;;;;;16.74;80.95;100694.59;5073961;28;20051;-93
2022/09/08 03:38:47;;;;;;;0.95;0.95;;;;;;;16.73;81.96;100693.75;5074183;28;20025;-93
2022/09/08 03:41:15;;;;;;;1.77;1.07;;;;;;;16.70;81.31;100698.28;5073650;28;20078;-93
2022/09/08 03:43:55;;;;;;;1.33;1.23;;;;;;;16.68;84.42;100720.16;5073772;28;20020;-94
2022/09/08 03:46:22;;;;;;;0.93;0.90;;;;;;;16.64;82.36;100730.84;5073881;28;20020;-94
2022/09/08 03:51:36;;;;;;;0.88;0.82;;;;;;;16.49;83.71;100725.31;5073854;28;19957;-93
2022/09/08 03:56:49;;;;;;;1.33;1.20;;;;;;;16.36;84.83;100695.31;5073453;28;20032;-90
2022/09/08 03:59:15;;;;;;;1.30;1.20;;;;;;;16.34;83.77;100705.00;5073153;28;20132;-89
2022/09/08 04:01:54;;;;;;;1.13;1.03;;;;;;;16.33;83.61;100703.28;5072033;28;20509;-88
2022/09/08 04:04:23;;;;;;;1.30;1.20;;;;;;;16.29;84.55;100688.66;5072924;28;20473;-89
2022/09/08 04:06:49;;;;;;;1.85;1.40;;;;;;;16.26;85.49;100691.38;5073257;28;20024;-90
2022/09/08 04:09:14;;;;;;;1.77;1.00;;;;;;;16.21;84.58;100684.56;5073390;28;20031;-91
2022/09/08 04:11:53;;;;;;;0.73;0.73;;;;;;;16.21;84.59;100675.88;5073432;28;20095;-91
2022/09/08 04:14:19;;;;;;;0.85;0.85;;;;;;;16.17;86.06;100672.53;5077930;28;20070;-94
2022/09/08 04:16:44;;;;;;;1.27;1.07;;;;;;;16.14;85.56;100677.88;5079545;28;20017;-92
2022/09/08 04:19:10;;;;;;;0.90;0.90;;;;;;;16.15;84.53;100695.31;5080220;28;20024;-91
2022/09/08 04:21:48;;;;;;;0.60;0.60;;;;;;;16.14;84.30;100687.53;5080984;28;20036;-92
2022/09/08 04:24:14;;;;;;;0.63;0.63;;;;;;;16.14;83.31;100698.81;5080017;28;20028;-92
2022/09/08 04:26:40;;;;;;;0.63;0.60;;;;;;;16.15;84.50;100704.94;5081463;28;20031;-93
2022/09/08 04:29:06;;;;;;;0.82;0.75;;;;;;;16.11;84.51;100705.97;5079174;28;20028;-93
2022/09/08 04:31:31;;;;;;;0.63;0.63;;;;;;;16.09;84.19;100706.03;5078046;28;20017;-93
2022/09/08 04:33:57;;;;;;;1.53;0.70;;;;;;;16.08;84.76;100700.84;5077799;28;20421;-92
2022/09/08 04:36:48;;;;;;;1.00;1.00;;;;;;;16.05;85.98;100699.22;5077601;28;20021;-91
2022/09/08 04:39:16;;;;;;;1.27;1.00;;;;;;;15.99;85.02;100697.69;5076831;28;20039;-90
2022/09/08 04:41:53;;;;;;;0.90;0.90;;;;;;;15.99;84.46;100702.94;5077150;28;20425;-90
2022/09/08 04:44:19;;;;;;;0.80;0.80;;;;;;;16.00;86.21;100703.75;5076437;28;20031;-90
2022/09/08 04:46:44;;;;;;;1.57;0.90;;;;;;;16.03;85.03;100719.34;5076839;28;20024;-90
2022/09/08 04:49:09;;;;;;;0.50;0.50;;;;;;;16.01;84.40;100713.31;5076300;28;20057;-91
2022/09/08 04:51:35;;;;;;;0.70;0.67;;;;;;;16.00;84.16;100717.72;5076540;28;20043;-91
2022/09/08 04:54:14;;;;;;;0.43;0.43;;;;;;;16.00;84.10;100712.47;5076391;28;20027;-91
2022/09/08 04:56:39;;;;;;;1.33;1.00;;;;;;;16.02;87.80;100709.78;5077392;28;20020;-90
2022/09/08 04:59:11;;;;;;;2.03;1.00;;;;;;;16.00;85.15;100712.47;5076800;28;20380;-90
2022/09/08 05:01:49;;;;;;;1.30;1.20;;;;;;;15.98;85.12;100708.22;5076790;28;20032;-90
2022/09/08 05:04:14;;;;;;;0.70;0.65;;;;;;;16.00;84.66;100716.84;5076869;28;20032;-90
2022/09/08 05:06:39;;;;;;;1.00;0.97;;;;;;;16.03;84.45;100717.59;5076629;28;20024;-92
2022/09/08 05:09:21;;;;;;;0.60;0.60;;;;;;;16.02;85.11;100709.78;5076307;28;20381;-91
2022/09/08 05:11:47;;;;;;;0.98;0.80;;;;;;;16.05;85.00;100723.59;5074457;28;20184;-89
2022/09/08 05:14:12;;;;;;;0.68;0.68;;;;;;;16.05;85.51;100720.16;5075118;28;20021;-88
2022/09/08 05:16:53;;;;;;;0.63;0.60;;;;;;;16.04;84.67;100710.59;5074254;28;20032;-88
2022/09/08 05:19:18;;;;;;;0.80;0.80;;;;;;;16.04;84.23;100713.22;5074404;28;20126;-88
2022/09/08 05:21:43;;;;;;;0.70;0.70;;;;;;;16.04;85.27;100723.69;5074663;28;20056;-88
2022/09/08 05:24:09;;;;;;;0.80;0.80;;;;;;;16.05;84.85;100718.38;5074314;28;20017;-88
2022/09/08 05:26:34;;;;;;;1.17;0.90;;;;;;;16.06;85.52;100725.31;5073704;28;20025;-88
2022/09/08 05:29:08;;;;;;;0.60;0.60;;;;;;;16.08;84.93;100722.66;5074009;28;20029;-88
2022/09/08 05:31:34;;;;;;;1.40;1.23;;;;;;;16.08;86.90;100719.16;5074405;28;20036;-89
2022/09/08 05:33:59;;;;;;;1.20;1.10;;;;;;;16.03;87.15;100725.47;5073875;28;20365;-88
2022/09/08 05:36:32;;;;;;;0.60;0.60;;;;;;;16.03;86.88;100725.47;5074469;28;20023;-89
2022/09/08 05:38:59;;;;;;;1.20;1.10;;;;;;;16.01;87.46;100723.78;5074398;28;20437;-88
2022/09/08 05:41:25;;;;;;;;;;;;;;;15.97;86.89;100728.31;5074439;28;20531;-87
2022/09/08 05:43:52;;;;;;;1.40;1.00;;;;;;;15.95;86.17;100714.41;5074059;28;19912;-87
2022/09/08 05:46:18;;;;;;;1.00;1.00;;;;;;;15.93;86.09;100704.94;5074136;28;20478;-87
2022/09/08 05:48:43;;;;;;;0.73;0.73;;;;;;;15.94;85.89;100712.72;5072934;28;20048;-88
2022/09/08 05:51:17;;;;;;;0.80;0.80;;;;;;;15.97;85.79;100722.22;5074383;28;20055;-87
2022/09/08 05:53:49;;;;;;;1.00;0.95;;;;;;;15.99;86.28;100717.75;5071966;28;20036;-84
2022/09/08 05:56:18;;;;;;;0.77;0.77;;;;;;;16.01;85.67;100723.78;5074019;28;20533;-89
2022/09/08 05:58:58;;;;;;;1.00;0.82;;;;;;;16.03;85.53;100727.19;5074156;28;20028;-89
2022/09/08 06:01:27;;;;;;;0.77;0.77;;;;;;;16.03;85.58;100728.06;5073862;28;20025;-90
2022/09/08 06:03:53;;;;;;;0.55;0.55;;;;;;;16.05;86.18;100725.38;5074226;28;20483;-90
2022/09/08 06:06:19;;;;;;;0.60;0.60;;;;;;;16.08;85.81;100722.66;5074472;28;20020;-90
2022/09/08 06:08:59;;;;;;;0.50;0.50;;;;;;;16.08;85.39;100719.16;5073135;28;20025;-84
2022/09/08 06:11:25;;;;;;;0.50;0.50;;;;;;;16.12;86.16;100716.34;5074747;28;20544;-90
2022/09/08 06:13:51;;;;;;;0.80;0.80;;;;;;;16.11;85.77;100717.28;5074074;28;20040;-91
2022/09/08 06:16:17;;;;;;;0.90;0.90;;;;;;;16.12;85.85;100720.75;5074752;28;20027;-91
2022/09/08 06:18:46;;;;;;;0.50;0.50;;;;;;;16.13;85.70;100719.84;5073933;28;20028;-92
2022/09/08 06:21:23;;;;;;;1.17;1.15;;;;;;;16.11;86.11;100719.06;5074371;28;20025;-92
2022/09/08 06:24:10;;;;;;;1.17;1.13;;;;;;;16.11;87.00;100727.75;5074483;28;20338;-92
2022/09/08 06:27:00;;;;;;;1.05;1.00;;;;;;;16.15;86.01;100725.88;5074404;28;20028;-94
2022/09/08 06:29:56;;;;;;;0.75;0.73;;;;;;;16.16;86.00;100717.09;5074475;28;20031;-94
2022/09/08 06:32:32;;;;;;;0.60;0.60;;;;;;;16.19;85.93;100722.19;5074526;28;20043;-93
2022/09/08 06:35:10;;;;;;;1.00;1.00;;;;;;;16.19;87.18;100723.06;5139934;22;20053;-95
2022/09/08 06:37:38;;;;;;;1.10;1.00;;;;;;;16.19;88.61;100733.53;5054337;28;20021;-94
2022/09/08 06:40:13;;;;;;;1.08;1.08;;;;;;;16.20;88.88;100734.38;5054594;28;20033;-96
2022/09/08 06:43:07;;;;;;;0.80;0.80;;;;;;;16.19;88.71;100728.31;5052967;28;20112;-87
2022/09/08 06:45:43;;;;;;;2.83;2.00;;;;;;;16.17;89.02;100724.03;5053298;28;20059;-88
2022/09/08 06:48:15;;;;;;;2.10;1.90;;;;;;;16.17;87.95;100731.88;5052915;28;20021;-87
2022/09/08 06:51:08;;;;;;;3.58;1.85;;;;;;;16.19;88.83;100738.78;5051897;28;20025;-86
2022/09/08 06:53:38;;;;;;;1.45;1.35;;;;;;;16.24;88.04;100740.34;5053269;28;20103;-87
2022/09/08 06:56:17;;;;;;;2.88;2.10;;;;;;;16.28;90.92;100741.94;5053854;28;20028;-93
2022/09/08 06:58:44;;;;;;;3.00;1.90;;;;;;;16.27;90.13;100735.81;5053931;28;20053;-95
2022/09/08 07:01:30;;;;;;;2.00;1.90;;;;;;;16.29;88.79;100735.78;5054051;28;20025;-95
2022/09/08 07:04:33;;;;;;;2.78;1.95;;;;;;;16.31;90.11;100734.78;5275745;22;20357;-95
2022/09/08 07:07:37;;;;;;;2.70;2.00;;;;;;;16.33;89.29;100735.59;5057303;28;20063;-95
2022/09/08 07:10:11;;;;;;;2.80;2.20;;;;;;;16.35;89.55;100739.00;5054424;28;20381;-96
2022/09/08 07:19:19;;;;;;;5.13;2.92;;;;;;;16.41;90.06;100737.03;5077061;28;20073;-82
2022/09/08 07:21:59;;;;;;;3.20;2.50;;;;;;;16.46;89.80;100742.94;5072288;28;20040;-82
2022/09/08 07:24:33;;;;;;;2.17;1.98;;;;;;;16.51;90.71;100739.22;5072888;28;20017;-82
2022/09/08 07:27:00;;;;;;;2.05;1.85;;;;;;;16.55;89.09;100741.72;5072196;28;20426;-91
2022/09/08 07:29:43;;;;;;;2.40;2.10;;;;;;;16.58;90.54;100739.81;5072820;28;20038;-90
2022/09/08 07:32:20;;;;;;;4.13;2.40;;;;;;;16.61;88.99;100754.53;5073725;28;20033;-95
2022/09/08 07:34:58;;;;;;;2.53;2.03;;;;;;;16.67;88.03;100746.41;5071626;28;20078;-94
2022/09/08 07:37:35;;;;;;;2.35;2.10;;;;;;;16.69;90.82;100744.59;5074374;28;20077;-93
2022/09/08 07:40:16;;;;;;;4.60;2.90;;;;;;;16.67;91.19;100747.28;5072481;28;20472;-94
2022/09/08 07:42:41;;;;;;;3.38;2.70;;;;;;;16.69;91.17;100747.19;5068401;28;20478;-94
2022/09/08 07:45:10;;;;;;;2.45;2.25;;;;;;;16.73;89.84;100740.06;5052884;28;20067;-94
2022/09/08 07:47:48;;;;;;;3.00;2.10;;;;;;;16.77;90.23;100742.50;5052516;28;20120;-94
2022/09/08 07:53:25;;;;;;;5.50;3.00;;;;;;;16.88;90.32;100741.19;5057632;28;20098;-93
2022/09/08 07:55:53;;;;;;;4.57;3.38;;;;;;;17.01;93.25;100742.38;5056999;28;20136;-93
2022/09/08 07:58:46;;;;;;;4.68;3.10;;;;;;;17.12;90.74;100747.97;5057623;28;20033;-94
2022/09/08 08:01:45;;;;;;;5.55;3.50;;;;;;;17.49;90.69;100745.50;5056849;28;20025;-92
2022/09/08 08:04:31;;;;;;;4.78;3.05;;;;;;;17.64;90.35;100757.06;5057783;28;20067;-94
2022/09/08 08:07:04;;;;;;;6.70;3.65;;;;;;;17.70;90.72;100754.13;5057975;28;20021;-94
2022/09/08 08:09:46;;;;;;;3.20;2.80;;;;;;;17.88;89.55;100754.19;5060901;28;20384;-95
2022/09/08 08:12:23;;;;;;;6.28;3.90;;;;;;;17.94;87.98;100748.66;5060645;28;20045;-95
2022/09/08 08:15:03;;;;;;;5.43;3.35;;;;;;;17.83;87.64;100746.56;5062576;28;20025;-95
2022/09/08 08:17:59;;;;;;;5.57;3.72;;;;;;;17.65;86.31;100757.88;5063593;28;20050;-96
2022/09/08 08:21:14;;;;;;;6.32;4.15;;;;;;;17.37;86.07;100762.63;5062757;28;20056;-96
2022/09/08 08:24:00;;;;;;;5.95;3.60;;;;;;;17.22;86.11;100768.59;5058452;28;20055;-96
2022/09/08 08:26:34;;;;;;;4.82;3.63;;;;;;;17.09;86.33;100766.50;5060321;28;20108;-96
2022/09/08 08:29:34;;;;;;;3.40;3.10;;;;;;;17.07;86.54;100768.34;5116991;22;20079;-96
2022/09/08 08:32:09;;;;;;;3.30;2.95;;;;;;;17.21;86.82;100770.34;5076725;22;20131;-96
2022/09/08 08:34:49;;;;;;;4.87;3.13;;;;;;;17.47;86.98;100763.06;5082169;28;20034;-96
2022/09/08 08:37:23;;;;;;;5.70;4.10;;;;;;;17.65;86.53;100761.38;5080027;28;20028;-96
2022/09/08 08:39:52;;;;;;;5.10;3.63;;;;;;;17.81;86.66;100753.63;5080163;28;20111;-96
2022/09/08 08:42:23;;;;;;;7.47;3.97;;;;;;;17.92;86.81;100753.13;5081022;28;20028;-96
2022/09/08 08:45:16;;;;;;;5.82;3.80;;;;;;;18.05;85.71;100750.81;5080718;28;20082;-96
2022/09/08 08:47:44;;;;;;;6.93;3.90;;;;;;;18.08;84.60;100760.31;5079707;28;20032;-95
2022/09/08 08:50:19;;;;;;;6.55;3.40;;;;;;;18.16;83.60;100768.66;5081444;28;20442;-96
2022/09/08 08:53:21;;;;;;;4.43;3.20;;;;;;;18.28;83.40;100768.06;5081837;28;20021;-95
2022/09/08 08:55:58;;;;;;;3.85;2.90;;;;;;;18.49;83.58;100765.28;5078789;28;20036;-96
2022/09/08 08:59:01;;;;;;;2.70;2.50;;;;;;;18.76;82.76;100764.84;5077585;28;20062;-96
2022/09/08 09:01:56;;;;;;;3.72;2.80;;;;;;;18.99;83.53;100758.41;5076621;28;20036;-94
2022/09/08 09:05:00;;;;;;;2.50;2.30;;;;;;;19.26;81.75;100755.28;5075668;28;20035;-95
2022/09/08 09:07:32;;;;;;;2.72;2.40;;;;;;;19.40;80.75;100758.03;5067951;28;20052;-91
2022/09/08 09:10:34;;;;;;;2.58;2.25;;;;;;;19.52;80.75;100753.03;5094659;28;20036;-91
2022/09/08 09:13:26;;;;;;;3.03;2.40;;;;;;;19.83;80.04;100759.22;5075562;28;20025;-90
2022/09/08 09:16:30;;;;;;;4.07;2.55;;;;;;;19.86;76.47;100751.19;5075471;28;20484;-90
2022/09/08 09:19:05;;;;;;;2.67;2.40;;;;;;;19.64;78.27;100760.25;5074712;28;20418;-91
2022/09/08 09:22:05;;;;;;;4.97;2.60;;;;;;;19.39;78.30;100763.34;5075219;28;20020;-91
2022/09/08 09:24:58;;;;;;;3.55;2.45;;;;;;;19.13;76.53;100755.09;5075401;28;20027;-90
2022/09/08 09:27:36;;;;;;;3.45;2.00;;;;;;;18.95;77.21;100755.09;5087463;28;20036;-91
2022/09/08 09:30:42;;;;;;;4.20;2.10;;;;;;;18.91;78.96;100753.53;5081008;28;20028;-92
2022/09/08 09:33:43;;;;;;;3.35;2.30;;;;;;;19.03;78.89;100759.97;5032537;28;20057;-89
2022/09/08 09:36:47;;;;;;;2.53;1.80;;;;;;;19.10;79.91;100757.88;5092865;28;20024;-90
2022/09/08 09:39:37;;;;;;;3.03;2.00;;;;;;;19.10;78.00;100755.22;5066925;28;20615;-89
2022/09/08 09:42:14;;;;;;;2.03;1.80;;;;;;;19.14;78.11;100751.50;5075180;28;20465;-89
2022/09/08 09:44:49;;;;;;;3.50;1.92;;;;;;;19.34;76.02;100752.25;5089145;28;20059;-89
2022/09/08 09:47:52;;;;;;;2.00;1.65;;;;;;;19.53;76.82;100760.84;5090557;28;20032;-89
2022/09/08 09:50:31;;;;;;;2.53;1.48;;;;;;;19.65;75.96;100753.19;5093217;28;20028;-88
2022/09/08 09:53:14;;;;;;;2.60;1.88;;;;;;;19.95;73.51;100753.31;5093519;28;20035;-89
2022/09/08 09:55:57;;;;;;;3.08;1.80;;;;;;;20.18;72.13;100754.63;5092419;28;20477;-88
2022/09/08 09:58:48;;;;;;;5.32;1.80;;;;;;;20.26;72.35;100758.63;5093782;28;20035;-88
2022/09/08 10:01:57;;;;;;;2.42;1.50;;;;;;;20.26;73.31;100756.81;5093039;28;20039;-88
2022/09/08 10:04:31;;;;;;;3.97;1.70;;;;;;;20.27;71.46;100753.25;5094780;28;20111;-87
2022/09/08 10:07:21;;;;;;;5.00;1.73;;;;;;;20.23;71.22;100756.16;5093728;28;20147;-88
2022/09/08 10:10:06;;;;;;;3.10;1.70;;;;;;;20.17;71.32;100763.47;5094160;28;20036;-90
2022/09/08 10:12:37;;;;;;;3.45;1.50;;;;;;;20.22;71.30;100763.19;5094228;28;20028;-89
2022/09/08 10:15:40;;;;;;;1.90;1.63;;;;;;;20.38;70.37;100760.53;5094072;28;20399;-87
2022/09/08 10:18:33;;;;;;;3.92;1.85;;;;;;;20.53;69.34;100753.53;5091929;28;20070;-89
2022/09/08 10:21:13;;;;;;;3.30;1.58;;;;;;;20.63;70.43;100761.72;5075511;28;20085;-88
2022/09/08 10:24:06;;;;;;;2.40;1.48;;;;;;;20.93;67.71;100763.53;5093838;28;20457;-89
2022/09/08 10:26:59;;;;;;;2.63;1.63;;;;;;;21.13;65.71;100764.94;5094228;28;20034;-89
2022/09/08 10:29:46;;;;;;;2.45;1.50;;;;;;;21.28;67.98;100768.41;5088737;28;20032;-88
2022/09/08 10:32:50;;;;;;;5.68;1.98;;;;;;;21.29;65.57;100770.13;5075842;28;20090;-86
2022/09/08 10:35:40;;;;;;;1.75;1.38;;;;;;;21.34;67.01;100764.56;5073178;28;20040;-88
2022/09/08 10:38:14;;;;;;;4.90;1.85;;;;;;;21.45;66.56;100765.59;5075281;28;20032;-89
2022/09/08 10:41:00;;;;;;;2.67;1.60;;;;;;;21.51;67.04;100768.78;5093503;28;20028;-89
2022/09/08 10:43:37;;;;;;;1.55;1.45;;;;;;;21.36;64.26;100762.69;5072657;28;20025;-88
2022/09/08 10:46:29;;;;;;;1.60;1.27;;;;;;;21.36;66.41;100758.25;5073414;28;20070;-88
2022/09/08 10:49:27;;;;;;;2.28;1.40;;;;;;;21.56;66.29;100764.06;5119803;22;20052;-88
2022/09/08 10:52:19;;;;;;;3.38;1.38;;;;;;;21.51;65.64;100756.44;5053098;28;20415;-87
2022/09/08 10:55:18;;;;;;;3.13;1.50;;;;;;;21.64;65.61;100745.13;5053014;28;20036;-86
2022/09/08 10:58:18;;;;;;;4.85;1.73;;;;;;;21.81;64.52;100744.91;5051747;28;20029;-88
2022/09/08 11:01:17;;;;;;;3.92;1.60;;;;;;;22.08;65.54;100741.41;5052600;28;20474;-86
2022/09/08 11:03:56;;;;;;;2.08;1.25;;;;;;;22.30;64.38;100747.94;5051747;28;20025;-87
2022/09/08 11:06:43;;;;;;;2.03;1.33;;;;;;;22.02;61.65;100750.59;5052748;28;20086;-87
2022/09/08 11:09:51;;;;;;;3.83;1.60;;;;;;;21.56;62.70;100756.97;5052873;28;20033;-87
2022/09/08 11:12:49;;;;;;;1.73;1.20;;;;;;;21.29;65.60;100757.78;5051766;28;20048;-86
2022/09/08 11:15:33;;;;;;;1.20;1.10;;;;;;;21.24;66.31;100748.47;5052883;28;20396;-86
2022/09/08 11:18:37;;;;;;;3.35;1.50;;;;;;;21.57;65.39;100757.84;5051174;28;20040;-86
2022/09/08 11:21:07;;;;;;;3.75;1.42;;;;;;;21.90;63.72;100740.81;4986713;28;20044;-87
2022/09/08 11:23:42;;;;;;;4.00;1.42;;;;;;;22.12;62.79;100742.06;5054674;28;20025;-86
2022/09/08 11:26:34;;;;;;;2.92;1.55;;;;;;;22.35;62.61;100740.53;5056111;28;20029;-86
2022/09/08 11:29:09;;;;;;;2.95;1.40;;;;;;;22.53;63.42;100735.81;5056017;28;20358;-86
2022/09/08 11:32:14;;;;;;;5.10;1.60;;;;;;;22.67;62.32;100740.22;5056046;28;20036;-87
2022/09/08 11:35:23;;;;;;;3.72;1.50;;;;;;;22.50;60.26;100731.59;5056554;28;20104;-87
2022/09/08 11:38:10;;;;;;;2.75;1.42;;;;;;;22.25;62.09;100729.72;5056443;28;20056;-87
2022/09/08 11:41:03;;;;;;;1.65;1.10;;;;;;;22.06;63.14;100730.97;5056032;28;20033;-87
2022/09/08 11:43:36;;;;;;;1.67;1.27;;;;;;;21.97;63.84;100734.19;5056782;28;20028;-91
2022/09/08 11:46:32;;;;;;;2.28;1.30;;;;;;;21.94;64.27;100733.53;5056079;28;20116;-85
2022/09/08 11:49:22;;;;;;;2.53;1.50;;;;;;;22.14;63.11;100732.25;5056382;28;20123;-85
2022/09/08 11:52:11;;;;;;;1.30;1.20;;;;;;;22.45;63.27;100723.16;5056095;28;20037;-85
2022/09/08 11:55:01;;;;;;;1.20;1.20;;;;;;;22.62;62.89;100724.66;5055224;28;20077;-84
2022/09/08 11:57:53;;;;;;;1.15;1.05;;;;;;;22.49;62.20;100727.25;5055960;28;20552;-85
2022/09/08 12:00:31;;;;;;;1.65;1.50;;;;;;;22.49;62.02;100724.63;5055379;28;20025;-85
2022/09/08 12:03:48;;;;;;;2.63;1.75;;;;;;;22.60;61.14;100717.75;5056028;28;20037;-85
2022/09/08 12:06:41;;;;;;;2.25;1.70;;;;;;;22.83;60.14;100719.66;5054115;28;20028;-85
2022/09/08 12:09:24;;;;;;;5.30;2.10;;;;;;;22.95;59.76;100707.41;5056281;28;20029;-85
2022/09/08 12:12:19;;;;;;;3.13;1.85;;;;;;;23.09;55.89;100701.13;5055788;28;20025;-85
2022/09/08 12:14:55;;;;;;;;;;;;;;;23.13;58.75;100685.88;5055505;28;20060;-85
2022/09/08 12:17:51;;;;;;;3.00;1.90;;;;;;;23.26;58.71;100688.50;5055967;28;19913;-84
2022/09/08 12:20:31;;;;;;;2.60;1.75;;;;;;;23.45;56.33;100690.69;5056187;28;20073;-85
2022/09/08 12:23:19;;;;;;;3.13;1.60;;;;;;;23.53;57.32;100690.13;5054828;28;20187;-79
2022/09/08 12:26:23;;;;;;;3.15;1.88;;;;;;;23.39;55.13;100689.31;5035450;28;20374;-80
2022/09/08 12:29:14;;;;;;;2.47;1.58;;;;;;;23.11;56.24;100690.41;5035374;28;20030;-80
2022/09/08 12:31:50;;;;;;;2.13;1.58;;;;;;;22.94;55.89;100695.13;5055574;28;20052;-80
2022/09/08 12:34:44;;;;;;;1.58;1.48;;;;;;;22.95;57.49;100690.66;5055455;28;20068;-79
2022/09/08 12:37:33;;;;;;;2.28;1.40;;;;;;;22.85;54.82;100687.81;5055379;28;20064;-82
2022/09/08 12:40:14;;;;;;;1.75;1.60;;;;;;;22.53;55.86;100685.59;5054982;28;20448;-87